Terminal Aerodrome Forecast
Issued by NWS

Home | Current Version | Previous Version | Graphics & Text | Print | Product List | Glossary On
Versions: 1 2 3 4 5 6 7 8 9 10 11 12 13 14 15 16 17 18 19
937
FTUS43 KGRB 041733
TAFCWA
TAF
KCWA 041733Z 0418/0518 22003KT P6SM BKN040
     FM042100 21004KT 3SM -SN BR OVC025
      TEMPO 0421/0501 1 1/2SM -SN BR BKN012
     FM050200 28005KT P6SM SCT012 BKN025
     FM050700 31005KT P6SM SCT025
     FM051300 31004KT P6SM SCT025 BKN150=

USA.gov is the U.S. government's official web portal to all federal, state and local government web resources and services.